sensor_id;sensor_type;location;lat;lon;timestamp;pressure;altitude;pressure_sealevel;temperature;humidity
74075;BME280;62428;51.412;5.432;2022-09-17T00:00:15;101213.59;;;10.37;86.32
74075;BME280;62428;51.412;5.432;2022-09-17T00:02:41;101224.06;;;10.39;85.84
74075;BME280;62428;51.412;5.432;2022-09-17T00:05:09;101229.16;;;10.41;86.31
74075;BME280;62428;51.412;5.432;2022-09-17T00:07:34;101243.09;;;10.43;86.17
74075;BME280;62428;51.412;5.432;2022-09-17T00:10:00;101240.69;;;10.41;85.68
74075;BME280;62428;51.412;5.432;2022-09-17T00:12:25;101232.91;;;10.39;86.60
74075;BME280;62428;51.412;5.432;2022-09-17T00:14:51;101236.38;;;10.40;85.68
74075;BME280;62428;51.412;5.432;2022-09-17T00:17:16;101246.34;;;10.39;86.32
74075;BME280;62428;51.412;5.432;2022-09-17T00:19:41;101246.06;;;10.41;86.27
74075;BME280;62428;51.412;5.432;2022-09-17T00:22:07;101261.38;;;10.41;85.55
74075;BME280;62428;51.412;5.432;2022-09-17T00:24:32;101260.81;;;10.44;86.23
74075;BME280;62428;51.412;5.432;2022-09-17T00:26:57;101260.81;;;10.44;85.98
74075;BME280;62428;51.412;5.432;2022-09-17T00:29:23;101252.22;;;10.42;85.61
74075;BME280;62428;51.412;5.432;2022-09-17T00:31:48;101266.75;;;10.41;85.81
74075;BME280;62428;51.412;5.432;2022-09-17T00:34:14;101260.56;;;10.40;86.10
74075;BME280;62428;51.412;5.432;2022-09-17T00:36:40;101261.38;;;10.41;85.75
74075;BME280;62428;51.412;5.432;2022-09-17T00:39:10;101253.31;;;10.41;86.13
74075;BME280;62428;51.412;5.432;2022-09-17T00:41:36;101254.13;;;10.41;85.78
74075;BME280;62428;51.412;5.432;2022-09-17T00:47:01;101258.13;;;10.44;85.89
74075;BME280;62428;51.412;5.432;2022-09-17T00:49:28;101258.13;;;10.44;86.15
74075;BME280;62428;51.412;5.432;2022-09-17T00:52:04;101267.25;;;10.48;85.98
74075;BME280;62428;51.412;5.432;2022-09-17T00:54:31;101260.25;;;10.47;86.12
74075;BME280;62428;51.412;5.432;2022-09-17T00:56:57;101270.19;;;10.46;85.79
74075;BME280;62428;51.412;5.432;2022-09-17T00:59:23;101263.72;;;10.47;86.12
74075;BME280;62428;51.412;5.432;2022-09-17T01:01:52;101256.25;;;10.44;85.95
74075;BME280;62428;51.412;5.432;2022-09-17T01:04:18;101255.44;;;10.44;85.63
74075;BME280;62428;51.412;5.432;2022-09-17T01:14:59;101261.63;;;10.44;85.78
74075;BME280;62428;51.412;5.432;2022-09-17T01:29:26;101273.44;;;10.43;84.93
74075;BME280;62428;51.412;5.432;2022-09-17T01:37:30;101279.59;;;10.44;85.77
74075;BME280;62428;51.412;5.432;2022-09-17T01:40:07;101285.50;;;10.46;85.85
74075;BME280;62428;51.412;5.432;2022-09-17T01:43:16;101279.06;;;10.47;85.67
74075;BME280;62428;51.412;5.432;2022-09-17T01:45:41;101294.91;;;10.48;85.98
74075;BME280;62428;51.412;5.432;2022-09-17T01:48:12;101294.63;;;10.50;86.04
74075;BME280;62428;51.412;5.432;2022-09-17T01:50:47;101290.84;;;10.51;85.85
74075;BME280;62428;51.412;5.432;2022-09-17T01:53:16;101290.84;;;10.51;86.39
74075;BME280;62428;51.412;5.432;2022-09-17T01:55:44;101291.66;;;10.51;85.99
74075;BME280;62428;51.412;5.432;2022-09-17T01:58:35;101288.16;;;10.51;86.01
74075;BME280;62428;51.412;5.432;2022-09-17T02:01:06;101283.06;;;10.49;86.14
74075;BME280;62428;51.412;5.432;2022-09-17T02:03:40;101285.47;;;10.51;86.30
74075;BME280;62428;51.412;5.432;2022-09-17T02:06:12;101298.09;;;10.50;86.47
74075;BME280;62428;51.412;5.432;2022-09-17T02:09:00;101295.13;;;10.52;85.70
74075;BME280;62428;51.412;5.432;2022-09-17T02:11:27;101288.72;;;10.48;85.88
74075;BME280;62428;51.412;5.432;2022-09-17T02:16:25;101292.75;;;10.45;86.06
74075;BME280;62428;51.412;5.432;2022-09-17T02:19:03;101289.81;;;10.42;85.86
74075;BME280;62428;51.412;5.432;2022-09-17T02:21:37;101287.94;;;10.42;86.63
74075;BME280;62428;51.412;5.432;2022-09-17T02:24:23;101286.06;;;10.43;86.24
74075;BME280;62428;51.412;5.432;2022-09-17T02:26:57;101293.03;;;10.44;86.47
74075;BME280;62428;51.412;5.432;2022-09-17T02:29:33;101285.81;;;10.44;86.38
74075;BME280;62428;51.412;5.432;2022-09-17T02:31:59;101296.53;;;10.44;86.70
74075;BME280;62428;51.412;5.432;2022-09-17T02:34:26;101291.16;;;10.44;86.65
74075;BME280;62428;51.412;5.432;2022-09-17T02:36:53;101295.44;;;10.45;86.32
74075;BME280;62428;51.412;5.432;2022-09-17T02:39:18;101301.34;;;10.47;86.26
74075;BME280;62428;51.412;5.432;2022-09-17T02:42:34;101308.31;;;10.48;86.12
74075;BME280;62428;51.412;5.432;2022-09-17T02:55:12;101307.56;;;10.43;85.85
74075;BME280;62428;51.412;5.432;2022-09-17T02:57:56;101308.63;;;10.42;86.03
74075;BME280;62428;51.412;5.432;2022-09-17T03:00:23;101310.53;;;10.41;86.12
74075;BME280;62428;51.412;5.432;2022-09-17T03:03:00;101310.25;;;10.43;86.23
74075;BME280;62428;51.412;5.432;2022-09-17T03:05:28;101312.41;;;10.41;86.09
74075;BME280;62428;51.412;5.432;2022-09-17T03:07:55;101305.69;;;10.38;86.09
74075;BME280;62428;51.412;5.432;2022-09-17T03:10:21;101304.66;;;10.34;85.97
74075;BME280;62428;51.412;5.432;2022-09-17T03:12:47;101313.50;;;10.34;86.08
74075;BME280;62428;51.412;5.432;2022-09-17T03:15:12;101307.63;;;10.32;86.31
74075;BME280;62428;51.412;5.432;2022-09-17T03:17:38;101313.50;;;10.29;86.22
74075;BME280;62428;51.412;5.432;2022-09-17T03:20:03;101302.25;;;10.27;86.01
74075;BME280;62428;51.412;5.432;2022-09-17T03:22:29;101308.72;;;10.26;86.22
74075;BME280;62428;51.412;5.432;2022-09-17T03:24:55;101303.63;;;10.25;86.06
74075;BME280;62428;51.412;5.432;2022-09-17T03:27:20;101300.94;;;10.25;86.12
74075;BME280;62428;51.412;5.432;2022-09-17T03:29:45;101297.72;;;10.23;85.86
74075;BME280;62428;51.412;5.432;2022-09-17T03:32:11;101301.47;;;10.22;85.85
74075;BME280;62428;51.412;5.432;2022-09-17T03:34:36;101296.91;;;10.22;85.85
74075;BME280;62428;51.412;5.432;2022-09-17T03:37:01;101300.41;;;10.23;85.84
74075;BME280;62428;51.412;5.432;2022-09-17T03:39:28;101300.41;;;10.23;86.27
74075;BME280;62428;51.412;5.432;2022-09-17T03:41:53;101294.75;;;10.24;86.00
74075;BME280;62428;51.412;5.432;2022-09-17T03:44:18;101305.50;;;10.24;85.28
74075;BME280;62428;51.412;5.432;2022-09-17T03:46:45;101300.13;;;10.24;85.50
74075;BME280;62428;51.412;5.432;2022-09-17T03:49:10;101295.56;;;10.25;85.35
74075;BME280;62428;51.412;5.432;2022-09-17T03:51:36;101300.13;;;10.24;85.65
74075;BME280;62428;51.412;5.432;2022-09-17T03:54:01;101305.50;;;10.24;85.22
74075;BME280;62428;51.412;5.432;2022-09-17T03:56:27;101297.72;;;10.23;85.45
74075;BME280;62428;51.412;5.432;2022-09-17T03:58:59;101302.25;;;10.22;85.37
74075;BME280;62428;51.412;5.432;2022-09-17T04:01:25;101312.22;;;10.22;85.05
74075;BME280;62428;51.412;5.432;2022-09-17T04:03:51;101303.63;;;10.19;85.41
74075;BME280;62428;51.412;5.432;2022-09-17T04:06:16;101311.69;;;10.19;85.59
74075;BME280;62428;51.412;5.432;2022-09-17T04:08:41;101316.81;;;10.16;84.97
74075;BME280;62428;51.412;5.432;2022-09-17T04:11:07;101310.13;;;10.13;85.11
74075;BME280;62428;51.412;5.432;2022-09-17T04:13:33;101330.78;;;10.13;85.19
74075;BME280;62428;51.412;5.432;2022-09-17T04:15:58;101325.41;;;10.13;84.85
74075;BME280;62428;51.412;5.432;2022-09-17T04:18:23;101333.47;;;10.13;84.98
74075;BME280;62428;51.412;5.432;2022-09-17T04:20:49;101327.03;;;10.09;84.63
74075;BME280;62428;51.412;5.432;2022-09-17T04:23:14;101325.72;;;10.06;85.11
74075;BME280;62428;51.412;5.432;2022-09-17T04:25:39;101322.78;;;10.03;85.04
74075;BME280;62428;51.412;5.432;2022-09-17T04:28:05;101323.84;;;10.01;85.22
74075;BME280;62428;51.412;5.432;2022-09-17T04:30:31;101322.53;;;9.99;85.38
74075;BME280;62428;51.412;5.432;2022-09-17T04:32:56;101324.44;;;9.98;85.21
74075;BME280;62428;51.412;5.432;2022-09-17T04:35:22;101331.66;;;9.98;85.37
74075;BME280;62428;51.412;5.432;2022-09-17T04:37:54;101337.28;;;9.96;85.31
74075;BME280;62428;51.412;5.432;2022-09-17T04:40:20;101326.56;;;9.96;85.09
74075;BME280;62428;51.412;5.432;2022-09-17T04:42:46;101331.94;;;9.96;85.16
74075;BME280;62428;51.412;5.432;2022-09-17T04:45:12;101334.91;;;9.95;85.78
74075;BME280;62428;51.412;5.432;2022-09-17T04:47:38;101335.44;;;9.92;85.37
74075;BME280;62428;51.412;5.432;2022-09-17T04:50:04;101333.84;;;9.91;85.59
74075;BME280;62428;51.412;5.432;2022-09-17T04:52:29;101337.88;;;9.88;85.73
74075;BME280;62428;51.412;5.432;2022-09-17T04:54:54;101339.78;;;9.88;85.85
74075;BME280;62428;51.412;5.432;2022-09-17T04:57:20;101355.88;;;9.88;86.06
74075;BME280;62428;51.412;5.432;2022-09-17T04:59:47;101371.69;;;9.89;86.17
74075;BME280;62428;51.412;5.432;2022-09-17T05:02:13;101347.53;;;9.89;85.88
74075;BME280;62428;51.412;5.432;2022-09-17T05:04:38;101344.84;;;9.89;86.80
74075;BME280;62428;51.412;5.432;2022-09-17T05:07:03;101348.09;;;9.86;86.22
74075;BME280;62428;51.412;5.432;2022-09-17T05:09:29;101340.31;;;9.85;86.69
74075;BME280;62428;51.412;5.432;2022-09-17T05:11:54;101338.69;;;9.84;86.80
74075;BME280;62428;51.412;5.432;2022-09-17T05:14:19;101338.41;;;9.85;87.11
74075;BME280;62428;51.412;5.432;2022-09-17T05:16:45;101346.47;;;9.85;87.27
74075;BME280;62428;51.412;5.432;2022-09-17T05:19:10;101346.75;;;9.84;86.21
74075;BME280;62428;51.412;5.432;2022-09-17T05:21:36;101348.63;;;9.83;87.05
74075;BME280;62428;51.412;5.432;2022-09-17T05:24:01;101356.41;;;9.85;87.33
74075;BME280;62428;51.412;5.432;2022-09-17T05:26:27;101359.88;;;9.85;87.32
74075;BME280;62428;51.412;5.432;2022-09-17T05:28:53;101358.81;;;9.86;86.98
74075;BME280;62428;51.412;5.432;2022-09-17T05:31:18;101357.22;;;9.85;86.97
74075;BME280;62428;51.412;5.432;2022-09-17T05:33:44;101359.88;;;9.85;87.30
74075;BME280;62428;51.412;5.432;2022-09-17T05:36:09;101367.41;;;9.83;87.29
74075;BME280;62428;51.412;5.432;2022-09-17T05:38:34;101368.50;;;9.82;87.15
74075;BME280;62428;51.412;5.432;2022-09-17T05:41:03;101367.69;;;9.81;87.33
74075;BME280;62428;51.412;5.432;2022-09-17T05:43:29;101358.56;;;9.82;87.52
74075;BME280;62428;51.412;5.432;2022-09-17T05:45:54;101365.53;;;9.84;87.33
74075;BME280;62428;51.412;5.432;2022-09-17T05:48:20;101366.88;;;9.81;86.77
74075;BME280;62428;51.412;5.432;2022-09-17T05:50:45;101366.88;;;9.81;87.04
74075;BME280;62428;51.412;5.432;2022-09-17T05:53:12;101366.88;;;9.81;86.87
74075;BME280;62428;51.412;5.432;2022-09-17T05:55:38;101363.13;;;9.82;87.55
74075;BME280;62428;51.412;5.432;2022-09-17T05:58:10;101374.94;;;9.86;87.43
74075;BME280;62428;51.412;5.432;2022-09-17T06:00:36;101370.34;;;9.87;87.24
74075;BME280;62428;51.412;5.432;2022-09-17T06:03:02;101373.56;;;9.89;87.28
74075;BME280;62428;51.412;5.432;2022-09-17T06:05:27;101379.19;;;9.92;86.89
74075;BME280;62428;51.412;5.432;2022-09-17T06:07:52;101378.94;;;9.94;87.37
74075;BME280;62428;51.412;5.432;2022-09-17T06:10:18;101385.63;;;9.96;87.43
74075;BME280;62428;51.412;5.432;2022-09-17T06:12:43;101394.75;;;10.00;87.25
74075;BME280;62428;51.412;5.432;2022-09-17T06:15:08;101403.84;;;10.05;87.46
74075;BME280;62428;51.412;5.432;2022-09-17T06:17:36;101405.75;;;10.04;86.72
74075;BME280;62428;51.412;5.432;2022-09-17T06:20:02;101413.50;;;10.06;87.12
74075;BME280;62428;51.412;5.432;2022-09-17T06:22:29;101405.75;;;10.04;86.32
74075;BME280;62428;51.412;5.432;2022-09-17T06:24:55;101415.66;;;10.04;86.04
74075;BME280;62428;51.412;5.432;2022-09-17T06:27:20;101417.00;;;10.06;86.05
74075;BME280;62428;51.412;5.432;2022-09-17T06:29:45;101415.91;;;10.07;86.13
74075;BME280;62428;51.412;5.432;2022-09-17T06:32:14;101407.84;;;10.07;85.93
74075;BME280;62428;51.412;5.432;2022-09-17T06:34:41;101406.78;;;10.08;85.22
74075;BME280;62428;51.412;5.432;2022-09-17T06:37:06;101408.13;;;10.11;85.43
74075;BME280;62428;51.412;5.432;2022-09-17T06:39:31;101408.94;;;10.11;85.97
74075;BME280;62428;51.412;5.432;2022-09-17T06:41:57;101397.91;;;10.13;85.50
74075;BME280;62428;51.412;5.432;2022-09-17T06:44:22;101398.72;;;10.13;85.44
74075;BME280;62428;51.412;5.432;2022-09-17T06:46:48;101401.41;;;10.13;85.38
74075;BME280;62428;51.412;5.432;2022-09-17T06:49:15;101397.09;;;10.12;85.19
74075;BME280;62428;51.412;5.432;2022-09-17T06:51:42;101404.88;;;10.14;85.47
74075;BME280;62428;51.412;5.432;2022-09-17T06:54:07;101403.00;;;10.19;85.77
74075;BME280;62428;51.412;5.432;2022-09-17T06:56:33;101402.72;;;10.21;85.54
74075;BME280;62428;51.412;5.432;2022-09-17T06:58:58;101397.34;;;10.26;85.65
74075;BME280;62428;51.412;5.432;2022-09-17T07:01:24;101395.97;;;10.34;84.96
74075;BME280;62428;51.412;5.432;2022-09-17T07:03:52;101399.97;;;10.36;84.39
74075;BME280;62428;51.412;5.432;2022-09-17T07:06:17;101401.59;;;10.37;84.60
74075;BME280;62428;51.412;5.432;2022-09-17T07:08:43;101404.00;;;10.39;84.84
74075;BME280;62428;51.412;5.432;2022-09-17T07:11:08;101399.97;;;10.42;85.26
74075;BME280;62428;51.412;5.432;2022-09-17T07:13:34;101403.66;;;10.51;85.06
74075;BME280;62428;51.412;5.432;2022-09-17T07:16:01;101408.16;;;10.66;85.67
74075;BME280;62428;51.412;5.432;2022-09-17T07:18:27;101391.66;;;10.83;85.18
74075;BME280;62428;51.412;5.432;2022-09-17T07:20:57;101400.97;;;11.01;84.54
74075;BME280;62428;51.412;5.432;2022-09-17T07:23:24;101405.72;;;11.09;84.58
74075;BME280;62428;51.412;5.432;2022-09-17T07:25:55;101404.06;;;11.13;84.21
74075;BME280;62428;51.412;5.432;2022-09-17T07:28:21;101412.00;;;11.33;84.22
74075;BME280;62428;51.412;5.432;2022-09-17T07:30:48;101413.06;;;11.62;83.40
74075;BME280;62428;51.412;5.432;2022-09-17T07:33:14;101413.66;;;11.83;82.35
74075;BME280;62428;51.412;5.432;2022-09-17T07:35:40;101409.16;;;12.02;82.33
74075;BME280;62428;51.412;5.432;2022-09-17T07:38:05;101416.13;;;12.27;80.86
74075;BME280;62428;51.412;5.432;2022-09-17T07:40:30;101417.97;;;12.51;79.12
74075;BME280;62428;51.412;5.432;2022-09-17T07:42:56;101412.22;;;12.77;79.28
74075;BME280;62428;51.412;5.432;2022-09-17T07:45:22;101403.75;;;13.02;77.45
74075;BME280;62428;51.412;5.432;2022-09-17T07:47:51;101409.31;;;13.25;76.75
74075;BME280;62428;51.412;5.432;2022-09-17T07:50:17;101403.63;;;13.45;75.89
74075;BME280;62428;51.412;5.432;2022-09-17T07:52:46;101414.34;;;13.64;75.85
74075;BME280;62428;51.412;5.432;2022-09-17T07:55:12;101417.06;;;13.78;74.05
74075;BME280;62428;51.412;5.432;2022-09-17T07:57:37;101413.94;;;13.85;73.12
74075;BME280;62428;51.412;5.432;2022-09-17T08:00:03;101415.47;;;13.91;73.13
74075;BME280;62428;51.412;5.432;2022-09-17T08:02:28;101405.06;;;13.98;72.16
74075;BME280;62428;51.412;5.432;2022-09-17T08:04:53;101406.84;;;14.03;72.66
74075;BME280;62428;51.412;5.432;2022-09-17T08:07:19;101410.34;;;14.17;72.83
74075;BME280;62428;51.412;5.432;2022-09-17T08:09:44;101409.59;;;14.39;71.85
74075;BME280;62428;51.412;5.432;2022-09-17T08:12:09;101413.56;;;14.56;72.45
74075;BME280;62428;51.412;5.432;2022-09-17T08:14:35;101409.69;;;14.48;71.67
74075;BME280;62428;51.412;5.432;2022-09-17T08:17:00;101416.53;;;14.46;70.86
74075;BME280;62428;51.412;5.432;2022-09-17T08:19:25;101411.09;;;14.59;71.21
74075;BME280;62428;51.412;5.432;2022-09-17T08:21:54;101416.97;;;14.75;70.53
74075;BME280;62428;51.412;5.432;2022-09-17T08:24:19;101417.38;;;14.69;70.00
74075;BME280;62428;51.412;5.432;2022-09-17T08:26:44;101427.00;;;14.47;71.97
74075;BME280;62428;51.412;5.432;2022-09-17T08:29:10;101413.44;;;14.25;70.79
74075;BME280;62428;51.412;5.432;2022-09-17T08:31:35;101423.06;;;14.17;70.05
74075;BME280;62428;51.412;5.432;2022-09-17T08:34:01;101428.03;;;14.23;69.35
74075;BME280;62428;51.412;5.432;2022-09-17T08:36:26;101426.03;;;14.43;69.72
74075;BME280;62428;51.412;5.432;2022-09-17T08:38:53;101419.88;;;14.65;69.28
74075;BME280;62428;51.412;5.432;2022-09-17T08:47:11;101426.88;;;15.03;68.25
74075;BME280;62428;51.412;5.432;2022-09-17T08:49:50;101426.81;;;15.16;68.95
74075;BME280;62428;51.412;5.432;2022-09-17T08:58:52;101433.00;;;15.40;65.85
74075;BME280;62428;51.412;5.432;2022-09-17T09:01:03;101438.56;;;15.34;67.57
74075;BME280;62428;51.412;5.432;2022-09-17T09:06:21;101424.41;;;15.37;65.49
74075;BME280;62428;51.412;5.432;2022-09-17T09:08:53;101428.69;;;15.38;65.49
74075;BME280;62428;51.412;5.432;2022-09-17T09:11:24;101421.75;;;15.46;65.74
74075;BME280;62428;51.412;5.432;2022-09-17T09:13:59;101435.25;;;15.37;64.81
74075;BME280;62428;51.412;5.432;2022-09-17T09:16:29;101437.88;;;15.29;65.71
74075;BME280;62428;51.412;5.432;2022-09-17T09:19:04;101436.31;;;15.28;65.95
74075;BME280;62428;51.412;5.432;2022-09-17T09:22:04;101426.81;;;15.39;66.33
74075;BME280;62428;51.412;5.432;2022-09-17T09:24:39;101436.53;;;15.17;65.78
74075;BME280;62428;51.412;5.432;2022-09-17T09:27:13;101434.53;;;15.01;67.41
74075;BME280;62428;51.412;5.432;2022-09-17T09:30:19;101436.69;;;14.98;68.08
74075;BME280;62428;51.412;5.432;2022-09-17T09:32:56;101435.13;;;14.97;66.94
74075;BME280;62428;51.412;5.432;2022-09-17T09:35:25;101429.22;;;14.95;65.03
74075;BME280;62428;51.412;5.432;2022-09-17T09:38:58;101424.91;;;14.94;67.44
74075;BME280;62428;51.412;5.432;2022-09-17T09:43:42;101432.75;;;14.82;66.30
74075;BME280;62428;51.412;5.432;2022-09-17T09:56:56;101422.91;;;14.64;66.88
74075;BME280;62428;51.412;5.432;2022-09-17T09:59:23;101425.13;;;14.48;66.74
74075;BME280;62428;51.412;5.432;2022-09-17T10:01:52;101419.94;;;14.37;67.84
74075;BME280;62428;51.412;5.432;2022-09-17T10:04:19;101421.00;;;14.36;67.57
74075;BME280;62428;51.412;5.432;2022-09-17T10:06:46;101426.56;;;14.31;67.47
74075;BME280;62428;51.412;5.432;2022-09-17T10:09:14;101434.25;;;14.24;68.77
74075;BME280;62428;51.412;5.432;2022-09-17T10:11:42;101441.28;;;14.11;71.08
74075;BME280;62428;51.412;5.432;2022-09-17T10:16:39;101427.84;;;13.64;74.29
74075;BME280;62428;51.412;5.432;2022-09-17T10:21:32;101436.91;;;13.22;76.49
74075;BME280;62428;51.412;5.432;2022-09-17T10:23:59;101436.34;;;13.06;77.07
74075;BME280;62428;51.412;5.432;2022-09-17T10:26:29;101436.19;;;12.97;78.18
74075;BME280;62428;51.412;5.432;2022-09-17T10:28:58;101440.06;;;12.91;77.84
74075;BME280;62428;51.412;5.432;2022-09-17T10:31:24;101440.28;;;12.95;79.14
74075;BME280;62428;51.412;5.432;2022-09-17T10:36:43;101431.16;;;13.10;79.16
74075;BME280;62428;51.412;5.432;2022-09-17T10:44:30;101418.72;;;13.60;80.11
74075;BME280;62428;51.412;5.432;2022-09-17T10:47:28;101422.03;;;13.85;79.23
74075;BME280;62428;51.412;5.432;2022-09-17T10:50:04;101429.47;;;13.93;78.25
74075;BME280;62428;51.412;5.432;2022-09-17T10:52:34;101434.16;;;13.88;77.23
74075;BME280;62428;51.412;5.432;2022-09-17T11:03:29;101429.81;;;13.59;78.94
74075;BME280;62428;51.412;5.432;2022-09-17T11:17:25;101422.66;;;13.35;77.79
74075;BME280;62428;51.412;5.432;2022-09-17T11:22:47;101422.28;;;13.23;77.25
74075;BME280;62428;51.412;5.432;2022-09-17T11:30:55;101419.22;;;12.97;76.93
74075;BME280;62428;51.412;5.432;2022-09-17T11:36:29;101422.34;;;12.85;77.70
74075;BME280;62428;51.412;5.432;2022-09-17T11:39:04;101415.78;;;12.91;77.50
74075;BME280;62428;51.412;5.432;2022-09-17T11:41:37;101413.50;;;13.36;76.28
74075;BME280;62428;51.412;5.432;2022-09-17T11:44:12;101420.81;;;13.50;76.67
74075;BME280;62428;51.412;5.432;2022-09-17T11:46:54;101428.16;;;13.77;76.24
74075;BME280;62428;51.412;5.432;2022-09-17T11:49:34;101423.75;;;14.09;74.72
74075;BME280;62428;51.412;5.432;2022-09-17T11:52:05;101413.09;;;14.54;74.57
74075;BME280;62428;51.412;5.432;2022-09-17T11:54:43;101423.53;;;14.33;72.52
74075;BME280;62428;51.412;5.432;2022-09-17T11:57:19;101424.84;;;13.94;73.95
74075;BME280;62428;51.412;5.432;2022-09-17T11:59:49;101428.53;;;13.70;75.10
74075;BME280;62428;51.412;5.432;2022-09-17T12:02:24;101427.72;;;13.56;75.67
74075;BME280;62428;51.412;5.432;2022-09-17T12:04:59;101429.50;;;13.46;73.28
74075;BME280;62428;51.412;5.432;2022-09-17T12:07:40;101427.84;;;13.32;75.11
74075;BME280;62428;51.412;5.432;2022-09-17T12:12:56;101418.97;;;13.12;76.52
74075;BME280;62428;51.412;5.432;2022-09-17T12:15:29;101420.72;;;13.03;76.48
74075;BME280;62428;51.412;5.432;2022-09-17T12:20:32;101414.28;;;13.37;73.47
74075;BME280;62428;51.412;5.432;2022-09-17T12:23:02;101413.84;;;13.76;73.94
74075;BME280;62428;51.412;5.432;2022-09-17T12:25:33;101406.94;;;13.98;72.48
74075;BME280;62428;51.412;5.432;2022-09-17T12:28:15;101411.25;;;13.99;74.75
74075;BME280;62428;51.412;5.432;2022-09-17T12:31:00;101403.53;;;13.92;72.54
74075;BME280;62428;51.412;5.432;2022-09-17T12:33:40;101400.13;;;13.87;71.52
74075;BME280;62428;51.412;5.432;2022-09-17T12:36:39;101402.63;;;13.83;72.58
74075;BME280;62428;51.412;5.432;2022-09-17T12:39:31;101393.75;;;13.82;71.15
74075;BME280;62428;51.412;5.432;2022-09-17T12:47:45;101391.81;;;14.11;72.49
74075;BME280;62428;51.412;5.432;2022-09-17T12:50:22;101389.22;;;14.19;72.59
74075;BME280;62428;51.412;5.432;2022-09-17T12:58:20;101365.50;;;14.53;71.99
74075;BME280;62428;51.412;5.432;2022-09-17T13:00:52;101365.13;;;14.59;71.24
74075;BME280;62428;51.412;5.432;2022-09-17T13:03:30;101363.28;;;14.69;72.33
74075;BME280;62428;51.412;5.432;2022-09-17T13:11:28;101343.41;;;15.58;71.01
74075;BME280;62428;51.412;5.432;2022-09-17T13:14:20;101346.75;;;15.87;69.64
74075;BME280;62428;51.412;5.432;2022-09-17T13:17:00;101339.97;;;16.50;66.96
74075;BME280;62428;51.412;5.432;2022-09-17T13:19:38;101353.84;;;16.93;65.30
74075;BME280;62428;51.412;5.432;2022-09-17T13:22:16;101344.84;;;17.57;63.37
74075;BME280;62428;51.412;5.432;2022-09-17T13:24:43;101342.03;;;18.13;59.53
74075;BME280;62428;51.412;5.432;2022-09-17T13:27:21;101343.31;;;19.03;61.25
74075;BME280;62428;51.412;5.432;2022-09-17T13:37:43;101352.09;;;20.60;51.85
74075;BME280;62428;51.412;5.432;2022-09-17T13:40:28;101354.84;;;20.20;55.04
74075;BME280;62428;51.412;5.432;2022-09-17T13:43:07;101347.38;;;19.55;53.46
74075;BME280;62428;51.412;5.432;2022-09-17T13:48:27;101351.75;;;18.56;51.58
74075;BME280;62428;51.412;5.432;2022-09-17T13:50:53;101343.94;;;18.33;50.87
74075;BME280;62428;51.412;5.432;2022-09-17T13:53:21;101352.69;;;18.18;52.08
74075;BME280;62428;51.412;5.432;2022-09-17T13:55:55;101353.88;;;18.50;50.63
74075;BME280;62428;51.412;5.432;2022-09-17T13:58:33;101354.53;;;18.89;52.14
74075;BME280;62428;51.412;5.432;2022-09-17T14:01:10;101355.41;;;19.27;52.47
74075;BME280;62428;51.412;5.432;2022-09-17T14:13:46;101355.50;;;21.77;39.39
74075;BME280;62428;51.412;5.432;2022-09-17T14:19:16;101358.16;;;19.64;45.88
74075;BME280;62428;51.412;5.432;2022-09-17T14:27:41;101363.59;;;17.88;46.65
74075;BME280;62428;51.412;5.432;2022-09-17T14:32:50;101367.19;;;17.24;47.99
74075;BME280;62428;51.412;5.432;2022-09-17T14:38:01;101364.31;;;17.20;47.36
74075;BME280;62428;51.412;5.432;2022-09-17T14:40:27;101366.88;;;17.17;48.55
74075;BME280;62428;51.412;5.432;2022-09-17T14:42:55;101364.53;;;16.98;46.94
74075;BME280;62428;51.412;5.432;2022-09-17T14:45:25;101377.44;;;16.75;48.41
74075;BME280;62428;51.412;5.432;2022-09-17T14:48:18;101404.41;;;16.45;51.32
74075;BME280;62428;51.412;5.432;2022-09-17T14:50:45;101435.38;;;15.95;57.17
74075;BME280;62428;51.412;5.432;2022-09-17T14:53:18;101420.56;;;15.38;60.27
74075;BME280;62428;51.412;5.432;2022-09-17T14:55:46;101412.34;;;14.98;63.02
74075;BME280;62428;51.412;5.432;2022-09-17T14:58:34;101406.44;;;14.74;62.84
74075;BME280;62428;51.412;5.432;2022-09-17T15:01:01;101412.50;;;14.57;65.33
74075;BME280;62428;51.412;5.432;2022-09-17T15:03:26;101400.91;;;14.42;64.85
74075;BME280;62428;51.412;5.432;2022-09-17T15:05:52;101394.81;;;14.37;66.79
74075;BME280;62428;51.412;5.432;2022-09-17T15:08:23;101391.28;;;14.36;67.31
74075;BME280;62428;51.412;5.432;2022-09-17T15:10:52;101392.69;;;14.34;66.95
74075;BME280;62428;51.412;5.432;2022-09-17T15:13:27;101389.81;;;14.30;66.08
74075;BME280;62428;51.412;5.432;2022-09-17T15:15:57;101386.31;;;14.30;66.41
74075;BME280;62428;51.412;5.432;2022-09-17T15:18:31;101387.19;;;14.25;66.43
74075;BME280;62428;51.412;5.432;2022-09-17T15:20:59;101382.72;;;14.20;65.07
74075;BME280;62428;51.412;5.432;2022-09-17T15:23:27;101396.84;;;14.17;64.52
74075;BME280;62428;51.412;5.432;2022-09-17T15:25:56;101391.22;;;14.14;63.13
74075;BME280;62428;51.412;5.432;2022-09-17T15:28:30;101391.22;;;14.14;65.11
74075;BME280;62428;51.412;5.432;2022-09-17T15:30:57;101385.34;;;14.12;63.73
74075;BME280;62428;51.412;5.432;2022-09-17T15:33:22;101384.34;;;14.08;63.71
74075;BME280;62428;51.412;5.432;2022-09-17T15:36:24;101387.25;;;14.11;63.24
74075;BME280;62428;51.412;5.432;2022-09-17T15:38:52;101388.72;;;14.17;62.77
74075;BME280;62428;51.412;5.432;2022-09-17T15:43:45;101383.59;;;14.30;61.53
74075;BME280;62428;51.412;5.432;2022-09-17T15:46:24;101386.50;;;14.33;63.35
74075;BME280;62428;51.412;5.432;2022-09-17T15:48:51;101394.63;;;14.33;62.19
74075;BME280;62428;51.412;5.432;2022-09-17T15:51:32;101388.09;;;14.34;62.65
74075;BME280;62428;51.412;5.432;2022-09-17T15:54:03;101390.19;;;14.37;61.65
74075;BME280;62428;51.412;5.432;2022-09-17T15:56:36;101384.78;;;14.37;61.14